METAR Data
IDs: Format: Raw Decoded Include TAF

Data at: 2243 UTC 25 Oct 2021

PANV 252156Z AUTO 25004KT 10SM CLR M03/M05 A2934 RMK AO2 SLP022 T10331050 FZRANO TSNO
PANV 252056Z AUTO 00000KT 10SM CLR M04/M06 A2933 RMK AO2 SLP021 T10441061 51006 FZRANO TSNO
PANV 251956Z AUTO 25003KT 10SM CLR M07/M08 A2933 RMK AO2 SLP022 T10671078 FZRANO TSNO
PANV 251856Z AUTO 25003KT 10SM BKN042 M07/M08 A2933 RMK AO2 SLP021 T10721078 FZRANO TSNO
PANV 251756Z AUTO 24004KT 10SM CLR M07/M08 A2932 RMK AO2 SLP017 T10721083 11044 21072 50001 FZRANO TSNO
PANV 251656Z AUTO 24004KT 10SM CLR M07/M08 A2932 RMK AO2 SLP018 T10721078 FZRANO TSNO
PANV 251556Z AUTO 26004KT 10SM FEW025 M07/M07 A2931 RMK AO2 SLP015 T10671072 FZRANO TSNO
PANV 251553Z AUTO 25004KT 10SM SCT025 M06/M07 A2931 RMK AO2 FZRANO TSNO
PANV 251515Z AUTO 25004KT 10SM BKN025 M06/M06 A2932 RMK AO2 FZRANO TSNO
PANV 251456Z AUTO 25004KT 10SM CLR M06/M06 A2932 RMK AO2 SLP012 T10561061 56008 FZRANO TSNO
PANV 251356Z AUTO 00000KT 10SM CLR M06/M07 A2932 RMK AO2 SLP015 T10611072 FZRANO TSNO
PANV 251317Z AUTO 26003KT 10SM FEW027 M06/M06 A2932 RMK AO2 FZRANO TSNO
PANV 251256Z AUTO 27004KT 10SM BKN027 M05/M06 A2933 RMK AO2 SLP014 T10501061 FZRANO TSNO
PANV 251235Z AUTO 25003KT 10SM BKN029 M04/M06 A2934 RMK AO2 FZRANO TSNO
PANV 251156Z AUTO 26003KT 10SM FEW031 M05/M06 A2934 RMK AO2 SLP018 T10501061 11028 21050 58006 FZRANO TSNO
PANV 251120Z AUTO 25003KT 10SM SCT026 M05/M06 A2934 RMK AO2 FZRANO TSNO
PANV 251056Z AUTO 25003KT 10SM OVC026 M04/M06 A2935 RMK AO2 SLP021 T10441056 FZRANO TSNO
PANV 250956Z AUTO 00000KT 10SM OVC028 M03/M05 A2935 RMK AO2 SLP023 T10331050 FZRANO TSNO
PANV 250856Z AUTO 24004KT 10SM OVC028 M03/M04 A2936 RMK AO2 SLP025 T10331044 400061033 56004 FZRANO TSNO
PANV 250808Z AUTO 26004KT 10SM OVC028 M03/M04 A2936 RMK AO2 FZRANO TSNO
PANV 250756Z AUTO 27005KT 10SM OVC030 M03/M04 A2936 RMK AO2 SLP026 T10281044 FZRANO TSNO
PANV 250656Z AUTO 25005KT 10SM OVC030 M03/M04 A2937 RMK AO2 SLP029 T10281044 FZRANO TSNO
PANV 250556Z AUTO 23004KT 10SM OVC030 M03/M04 A2937 RMK AO2 SLP032 T10281044 10000 21028 56010 FZRANO TSNO
PANV 250456Z AUTO 25004KT 10SM OVC034 M02/M04 A2939 RMK AO2 SLP035 T10221044 FZRANO TSNO
PANV 250356Z AUTO 23004KT 10SM CLR M03/M05 A2939 RMK AO2 SLP037 T10281050 FZRANO TSNO
PANV 250256Z AUTO 25004KT 10SM BKN032 M02/M04 A2940 RMK AO2 SLP039 T10171044 57012 FZRANO TSNO
PANV 250217Z AUTO 26004KT 10SM BKN030 M01/M04 A2941 RMK AO2 FZRANO TSNO
PANV 250156Z AUTO 26005KT 10SM OVC028 M01/M04 A2941 RMK AO2 SLP042 T10061039 FZRANO TSNO
PANV 250133Z AUTO 27007KT 10SM SCT024 OVC030 00/M03 A2942 RMK AO2 FZRANO TSNO
PANV 250056Z AUTO 26005KT 10SM BKN023 OVC030 00/M04 A2943 RMK AO2 SLP047 T00001039 FZRANO TSNO
PANV 242356Z AUTO 27007KT 10SM OVC021 00/M04 A2944 RMK AO2 SLP049 T00001039 10006 21028 58010 FZRANO TSNO
PANV 242256Z AUTO 27005KT 10SM FEW011 BKN019 00/M03 A2946 RMK AO2 SLP055 T00001033 FZRANO TSNO
PANV 242247Z AUTO 26008KT 10SM SCT011 BKN019 00/M03 A2946 RMK AO2 FZRANO TSNO
PANV 242228Z AUTO 23006KT 10SM BKN011 00/M03 A2946 RMK AO2 FZRANO TSNO
PANV 242212Z AUTO 26006KT 10SM FEW007 M01/M02 A2946 RMK AO2 FZRANO TSNO
PANV 242156Z AUTO 25005KT 10SM BKN007 M01/M03 A2947 RMK AO2 SLP061 T10111028 FZRANO TSNO
PANV 242056Z AUTO 24006KT 10SM OVC007 M02/M03 A2947 RMK AO2 SLP062 T10171028 50001 FZRANO TSNO
PANV 242010Z AUTO 25007KT 10SM OVC005 M02/M03 A2946 RMK AO2 FZRANO TSNO
PANV 241956Z AUTO 24004KT 10SM OVC007 M02/M03 A2947 RMK AO2 SLP064 T10221033 FZRANO TSNO
PANV 241856Z AUTO 25005KT 10SM OVC009 M03/M03 A2947 RMK AO2 SLP062 T10281033 FZRANO TSNO
PANV 241756Z AUTO 24006KT 10SM OVC009 M03/M03 A2947 RMK AO2 SLP062 T10281033 11006 21033 50004 FZRANO TSNO
PANV 241736Z AUTO 25005KT 10SM BKN009 BKN025 M03/M03 A2947 RMK AO2 CIG 007V011 FZRANO TSNO
PANV 241727Z AUTO 24005KT 10SM BKN011 BKN023 M03/M04 A2947 RMK AO2 FZRANO TSNO
PANV 241656Z AUTO 24006KT 10SM SCT024 BKN033 M03/M03 A2947 RMK AO2 SLP064 T10281033 FZRANO TSNO
PANV 241642Z AUTO 25006KT 10SM BKN024 OVC033 M02/M03 A2948 RMK AO2 FZRANO TSNO
PANV 241635Z AUTO 25005KT 10SM SCT022 OVC031 M02/M03 A2948 RMK AO2 FZRANO TSNO
PANV 241606Z AUTO 24006KT 10SM BKN027 M02/M03 A2947 RMK AO2 FZRANO TSNO
PANV 241556Z AUTO 24006KT 10SM SCT027 M02/M03 A2948 RMK AO2 SLP063 T10221033 FZRANO TSNO
PANV 241456Z AUTO 27007KT 10SM FEW065 BKN090 M01/M03 A2946 RMK AO2 SLP054 T10111028 51007 FZRANO TSNO
PANV 241356Z AUTO 26006KT 10SM OVC060 M01/M02 A2945 RMK AO2 SLP053 T10111022 FZRANO TSNO
PANV 241256Z AUTO 26006KT 10SM OVC060 M01/M02 A2944 RMK AO2 SLP050 T10111022 FZRANO TSNO
PANV 241156Z AUTO 26006KT 10SM OVC050 M01/M02 A2943 RMK AO2 SLP046 T10061022 10006 21006 52017 FZRANO TSNO
PANV 241056Z AUTO 27006KT 10SM OVC048 M01/M02 A2942 RMK AO2 SLP041 T10061022 FZRANO TSNO